Time;durP1;ratioP1;P1;durP2;ratioP2;P2;SDS_P1;SDS_P2;PMS_P1;PMS_P2;Temp;Humidity;BMP_temperature;BMP_pressure;BME280_temperature;BME280_humidity;BME280_pressure;Samples;Min_cycle;Max_cycle;Signal;HPM_P1;HPM_P2
2023/01/19 00:00:38;;;;;;;47.97;22.67;;;2.10;99.90;;;;;;4956923;28;20202;-81
2023/01/19 00:03:14;;;;;;;46.60;21.70;;;2.00;99.90;;;;;;4972839;28;20533;-81
2023/01/19 00:05:42;;;;;;;48.73;22.77;;;2.10;99.90;;;;;;4972793;28;20201;-79
2023/01/19 00:08:13;;;;;;;49.03;23.03;;;2.10;99.90;;;;;;4972529;28;20658;-80
2023/01/19 00:10:46;;;;;;;49.30;23.30;;;2.00;99.90;;;;;;4972839;28;20744;-82
2023/01/19 00:13:14;;;;;;;50.27;23.70;;;2.00;99.90;;;;;;4956720;28;20207;-80
2023/01/19 00:15:41;;;;;;;48.40;23.90;;;2.10;99.90;;;;;;4972518;28;20566;-82
2023/01/19 00:18:08;;;;;;;49.23;23.97;;;2.10;99.90;;;;;;4972741;28;20217;-84
2023/01/19 00:20:37;;;;;;;53.13;23.30;;;2.10;99.90;;;;;;4973886;28;20200;-82
2023/01/19 00:23:06;;;;;;;45.97;22.83;;;2.10;99.90;;;;;;4973364;28;20202;-87
2023/01/19 00:25:33;;;;;;;53.90;23.50;;;2.10;99.90;;;;;;4956414;28;20205;-84
2023/01/19 00:28:00;;;;;;;47.00;22.73;;;2.20;99.90;;;;;;4957295;28;20200;-88
2023/01/19 00:30:28;;;;;;;49.93;23.50;;;2.30;99.90;;;;;;4973763;28;20704;-83
2023/01/19 00:32:55;;;;;;;49.87;24.53;;;2.30;99.90;;;;;;4974002;28;20220;-80
2023/01/19 00:35:22;;;;;;;47.50;22.23;;;2.20;99.90;;;;;;4956831;28;20221;-88
2023/01/19 00:37:48;;;;;;;46.23;21.87;;;2.00;99.90;;;;;;4972851;28;20229;-89
2023/01/19 00:40:16;;;;;;;48.00;23.10;;;2.00;99.90;;;;;;4972784;28;20223;-88
2023/01/19 00:42:43;;;;;;;51.90;23.00;;;2.00;99.90;;;;;;4956462;28;20209;-88
2023/01/19 00:45:22;;;;;;;47.57;22.30;;;2.20;99.90;;;;;;4972267;28;20615;-88
2023/01/19 00:47:55;;;;;;;49.90;23.13;;;2.20;99.90;;;;;;4956438;28;20200;-85
2023/01/19 00:50:27;;;;;;;47.77;22.30;;;2.20;99.90;;;;;;4956635;28;20690;-86
2023/01/19 00:52:56;;;;;;;48.83;23.33;;;2.30;99.90;;;;;;4972576;28;20203;-92
2023/01/19 00:55:23;;;;;;;47.03;22.13;;;2.30;99.90;;;;;;4956482;28;20300;-83
2023/01/19 00:57:52;;;;;;;44.57;21.83;;;2.40;99.90;;;;;;4940911;28;20565;-90
2023/01/19 01:00:20;;;;;;;44.07;21.53;;;2.40;99.90;;;;;;4974436;28;20194;-88
2023/01/19 01:02:50;;;;;;;47.63;22.63;;;2.50;99.90;;;;;;4956787;28;20229;-85
2023/01/19 01:05:18;;;;;;;47.97;22.17;;;2.50;99.90;;;;;;4959103;28;20550;-85
2023/01/19 01:07:48;;;;;;;45.93;22.07;;;2.60;99.90;;;;;;4976223;28;20300;-87
2023/01/19 01:10:19;;;;;;;48.10;23.20;;;2.50;99.90;;;;;;4975831;28;20221;-84
2023/01/19 01:12:47;;;;;;;47.50;22.37;;;2.60;99.90;;;;;;4959908;28;20241;-81
2023/01/19 01:15:25;;;;;;;49.87;23.07;;;2.50;99.90;;;;;;4959782;28;20204;-77
2023/01/19 01:17:52;;;;;;;45.43;21.93;;;2.50;99.90;;;;;;4977412;28;20640;-78
2023/01/19 01:20:22;;;;;;;48.40;22.37;;;2.50;99.90;;;;;;4943698;28;20740;-82
2023/01/19 01:22:51;;;;;;;44.97;21.30;;;2.40;99.90;;;;;;4959495;28;20280;-79
2023/01/19 01:25:21;;;;;;;46.33;22.93;;;2.40;99.90;;;;;;4959634;28;20206;-80
2023/01/19 01:27:48;;;;;;;48.33;22.20;;;2.40;99.90;;;;;;4960242;28;20226;-76
2023/01/19 01:30:15;;;;;;;49.27;22.73;;;2.50;99.90;;;;;;4977354;28;20260;-80
2023/01/19 01:32:42;;;;;;;46.43;22.63;;;2.50;99.90;;;;;;4944040;28;20198;-86
2023/01/19 01:35:10;;;;;;;44.73;21.00;;;2.60;99.90;;;;;;4981253;28;20203;-78
2023/01/19 01:37:38;;;;;;;49.60;23.63;;;2.60;99.90;;;;;;4976648;28;20229;-87
2023/01/19 01:40:06;;;;;;;45.03;21.20;;;2.60;99.90;;;;;;4975798;28;20201;-81
2023/01/19 01:42:35;;;;;;;46.63;22.00;;;2.60;99.90;;;;;;4976250;28;20272;-79
2023/01/19 01:45:21;;;;;;;44.60;21.53;;;2.60;99.90;;;;;;4959507;28;20217;-83
2023/01/19 01:47:50;;;;;;;70.57;31.93;;;2.60;99.90;;;;;;4943957;28;20202;-87
2023/01/19 01:50:24;;;;;;;48.27;22.97;;;2.60;99.90;;;;;;4976618;28;20221;-90
2023/01/19 01:52:56;;;;;;;45.57;21.37;;;2.60;99.90;;;;;;4976583;28;20276;-86
2023/01/19 01:55:41;;;;;;;46.33;21.93;;;2.60;99.90;;;;;;4974756;28;20216;-78
2023/01/19 01:58:21;;;;;;;44.07;21.00;;;2.50;99.90;;;;;;4976453;28;20193;-89
2023/01/19 02:03:42;;;;;;;43.90;21.20;;;2.50;99.90;;;;;;4958690;28;20336;-83
2023/01/19 02:06:11;;;;;;;43.53;21.37;;;2.40;99.90;;;;;;4958634;28;20571;-87
2023/01/19 02:14:26;;;;;;;48.67;21.90;;;2.40;99.90;;;;;;4979885;28;20200;-77
2023/01/19 02:16:53;;;;;;;47.97;23.17;;;2.50;99.90;;;;;;4975230;28;20202;-88
2023/01/19 02:19:28;;;;;;;47.93;22.67;;;2.50;99.90;;;;;;4974770;28;20203;-88
2023/01/19 02:22:09;;;;;;;48.97;22.30;;;2.40;99.90;;;;;;4976117;28;20237;-81
2023/01/19 02:24:37;;;;;;;48.07;21.53;;;2.40;99.90;;;;;;4982372;28;20252;-80
2023/01/19 02:27:05;;;;;;;52.27;23.53;;;2.50;99.90;;;;;;4959923;28;20580;-86
2023/01/19 02:29:33;;;;;;;51.67;23.17;;;2.50;99.90;;;;;;4958960;28;20198;-80
2023/01/19 02:32:01;;;;;;;50.03;23.60;;;2.50;99.90;;;;;;4943048;28;20200;-84
2023/01/19 02:34:29;;;;;;;50.23;23.30;;;2.50;99.90;;;;;;4958981;28;20208;-86
2023/01/19 02:37:05;;;;;;;51.67;23.03;;;2.50;99.90;;;;;;4975692;28;20231;-82
2023/01/19 02:39:37;;;;;;;51.80;23.63;;;2.50;99.90;;;;;;4976212;28;20189;-85
2023/01/19 02:42:32;;;;;;;45.90;22.60;;;2.60;99.90;;;;;;4959295;28;20216;-91
2023/01/19 02:45:13;;;;;;;48.97;22.73;;;2.60;99.90;;;;;;4972845;28;20730;-88
2023/01/19 02:47:46;;;;;;;50.70;23.37;;;2.80;99.90;;;;;;4942282;28;20196;-91
2023/01/19 02:50:37;;;;;;;49.97;22.13;;;2.80;99.90;;;;;;4975756;28;20224;-86
2023/01/19 02:53:36;;;;;;;47.77;22.83;;;2.90;99.90;;;;;;4974827;28;20202;-83
2023/01/19 02:56:38;;;;;;;46.43;22.27;;;3.00;99.90;;;;;;4958134;28;20605;-89
2023/01/19 02:59:41;;;;;;;46.27;21.73;;;3.00;99.90;;;;;;4958801;28;20559;-92
2023/01/19 03:02:32;;;;;;;45.60;21.63;;;3.00;99.90;;;;;;4957880;28;20356;-86
2023/01/19 03:05:30;;;;;;;46.60;21.90;;;3.10;99.90;;;;;;4958109;28;20209;-91
2023/01/19 03:08:10;;;;;;;46.70;22.27;;;3.00;99.90;;;;;;4957727;28;20216;-90
2023/01/19 03:10:56;;;;;;;47.30;21.87;;;3.00;99.90;;;;;;4973593;28;20241;-90
2023/01/19 03:13:48;;;;;;;46.93;21.60;;;3.00;99.90;;;;;;4958572;28;20204;-83
2023/01/19 03:16:33;;;;;;;43.10;21.17;;;3.00;99.90;;;;;;4963339;28;20210;-77
2023/01/19 03:19:26;;;;;;;41.73;20.63;;;3.00;99.90;;;;;;4959983;28;20201;-86
2023/01/19 03:22:13;;;;;;;48.53;21.90;;;3.00;99.90;;;;;;4942018;28;20197;-85
2023/01/19 03:24:46;;;;;;;45.33;21.67;;;3.00;99.90;;;;;;4957585;28;20189;-87
2023/01/19 03:27:19;;;;;;;50.00;22.77;;;3.10;99.90;;;;;;4974690;28;20737;-81
2023/01/19 03:29:55;;;;;;;51.17;23.30;;;3.10;99.90;;;;;;4964659;28;20228;-77
2023/01/19 03:32:35;;;;;;;47.17;22.27;;;3.10;99.90;;;;;;4975337;28;20287;-92
2023/01/19 03:35:11;;;;;;;45.13;21.97;;;3.10;99.90;;;;;;4965625;28;20200;-78
2023/01/19 03:37:44;;;;;;;47.40;22.67;;;3.10;99.90;;;;;;4975045;28;20228;-90
2023/01/19 03:40:14;;;;;;;44.90;21.80;;;3.10;99.90;;;;;;4975541;28;20236;-82
2023/01/19 03:42:44;;;;;;;45.30;21.47;;;3.10;99.90;;;;;;4957714;28;20208;-90
2023/01/19 03:45:13;;;;;;;46.10;22.70;;;3.20;99.90;;;;;;4957770;28;20229;-90
2023/01/19 03:47:40;;;;;;;42.77;21.60;;;3.20;99.90;;;;;;4957582;28;20225;-89
2023/01/19 03:50:15;;;;;;;51.07;23.13;;;3.30;99.90;;;;;;4957456;28;20324;-89
2023/01/19 03:52:43;;;;;;;41.50;20.37;;;3.20;99.90;;;;;;4975476;28;20200;-89
2023/01/19 03:55:09;;;;;;;43.27;20.33;;;3.20;99.90;;;;;;4973450;28;20285;-91
2023/01/19 03:57:42;;;;;;;41.00;20.17;;;3.20;99.90;;;;;;4974431;28;20212;-91
2023/01/19 04:00:13;;;;;;;36.87;17.17;;;3.20;99.90;;;;;;4958274;28;20559;-92
2023/01/19 04:02:49;;;;;;;39.40;18.20;;;3.20;99.90;;;;;;4941603;28;20718;-84
2023/01/19 04:05:17;;;;;;;40.70;19.40;;;3.10;99.90;;;;;;4974784;28;20199;-93
2023/01/19 04:07:50;;;;;;;43.10;20.50;;;3.20;99.90;;;;;;4975813;28;20201;-92
2023/01/19 04:10:18;;;;;;;41.50;20.03;;;3.10;99.90;;;;;;4979540;28;20225;-78
2023/01/19 04:12:50;;;;;;;42.83;20.97;;;3.20;99.90;;;;;;4941734;28;20205;-80
2023/01/19 04:15:18;;;;;;;42.40;21.03;;;3.20;99.90;;;;;;4957213;28;20663;-88
2023/01/19 04:17:45;;;;;;;43.97;20.90;;;3.10;99.90;;;;;;4973519;28;20245;-92
2023/01/19 04:20:12;;;;;;;42.53;19.93;;;3.20;99.90;;;;;;4972838;28;20199;-78
2023/01/19 04:22:44;;;;;;;39.57;20.00;;;3.20;99.90;;;;;;4965420;28;20264;-76
2023/01/19 04:25:11;;;;;;;41.47;20.40;;;3.20;99.90;;;;;;4957430;28;20202;-89
2023/01/19 04:27:38;;;;;;;41.03;20.00;;;3.10;99.90;;;;;;4972722;28;20626;-93
2023/01/19 04:30:09;;;;;;;41.23;20.53;;;3.20;99.90;;;;;;4940861;28;20206;-78
2023/01/19 04:32:41;;;;;;;39.77;19.63;;;3.20;99.90;;;;;;4974226;28;20170;-82
2023/01/19 04:35:15;;;;;;;39.33;19.33;;;3.20;99.90;;;;;;4973279;28;20663;-90
2023/01/19 04:37:47;;;;;;;38.23;18.17;;;3.20;99.90;;;;;;4974644;28;20230;-94
2023/01/19 04:40:14;;;;;;;39.43;18.40;;;3.20;99.90;;;;;;4959080;28;20239;-90
2023/01/19 04:42:45;;;;;;;38.30;19.00;;;3.20;99.90;;;;;;4960772;28;20197;-92
2023/01/19 04:45:13;;;;;;;40.23;19.63;;;3.20;99.90;;;;;;4961054;28;20229;-88
2023/01/19 04:47:42;;;;;;;36.67;18.73;;;3.20;99.90;;;;;;4944993;28;20253;-92
2023/01/19 04:50:10;;;;;;;41.73;19.67;;;3.30;99.90;;;;;;4944785;28;20296;-92
2023/01/19 04:52:39;;;;;;;38.30;19.63;;;3.30;99.90;;;;;;4977526;28;20197;-78
2023/01/19 04:55:06;;;;;;;39.50;19.63;;;3.20;99.90;;;;;;4976204;28;20190;-82
2023/01/19 04:57:39;;;;;;;42.33;20.33;;;3.20;99.90;;;;;;4977635;28;20193;-93
2023/01/19 05:00:07;;;;;;;39.60;19.03;;;3.20;99.90;;;;;;4977878;28;20190;-85
2023/01/19 05:02:37;;;;;;;40.43;18.90;;;3.20;99.90;;;;;;4977540;28;20284;-86
2023/01/19 05:05:04;;;;;;;40.77;19.70;;;3.20;99.90;;;;;;4960078;28;20202;-82
2023/01/19 05:07:31;;;;;;;40.70;19.23;;;3.10;99.90;;;;;;4976258;28;20208;-90
2023/01/19 05:09:58;;;;;;;38.50;18.97;;;3.10;99.90;;;;;;4960729;28;20190;-85
2023/01/19 05:12:25;;;;;;;41.90;19.53;;;3.10;99.90;;;;;;4944585;28;20288;-90
2023/01/19 05:14:52;;;;;;;38.33;19.80;;;3.10;99.90;;;;;;4960509;28;20189;-81
2023/01/19 05:17:19;;;;;;;40.20;19.27;;;3.10;99.90;;;;;;4960169;28;20211;-82
2023/01/19 05:19:47;;;;;;;39.57;18.93;;;3.10;99.90;;;;;;4976006;28;20261;-86
2023/01/19 05:22:15;;;;;;;34.43;17.97;;;3.10;99.90;;;;;;4944091;28;20624;-80
2023/01/19 05:24:47;;;;;;;37.83;19.00;;;3.00;99.90;;;;;;4961824;28;20249;-77
2023/01/19 05:27:14;;;;;;;36.37;17.97;;;3.00;99.90;;;;;;4965640;28;20296;-96
2023/01/19 05:29:48;;;;;;;36.37;18.27;;;3.00;99.90;;;;;;4964899;28;20204;-85
2023/01/19 05:32:16;;;;;;;36.87;18.07;;;3.00;99.90;;;;;;4981451;28;20224;-93
2023/01/19 05:34:55;;;;;;;36.77;18.10;;;3.00;99.90;;;;;;4945765;28;20736;-88
2023/01/19 05:37:23;;;;;;;34.70;17.87;;;3.00;99.90;;;;;;4960032;28;20314;-80
2023/01/19 05:39:52;;;;;;;35.07;17.83;;;3.00;99.90;;;;;;4959723;28;20277;-80
2023/01/19 05:42:20;;;;;;;36.27;17.63;;;2.90;99.90;;;;;;4976138;28;20297;-91
2023/01/19 05:44:47;;;;;;;34.00;17.50;;;2.90;99.90;;;;;;4943394;28;20217;-91
2023/01/19 05:47:14;;;;;;;33.23;16.23;;;2.90;99.90;;;;;;4975517;28;20212;-83
2023/01/19 05:49:41;;;;;;;36.37;17.47;;;3.00;99.90;;;;;;4958861;28;20599;-84
2023/01/19 05:52:08;;;;;;;33.67;16.87;;;3.00;99.90;;;;;;4959218;28;20672;-82
2023/01/19 05:54:39;;;;;;;33.80;16.43;;;2.90;99.90;;;;;;4976866;28;20188;-89
2023/01/19 05:57:14;;;;;;;36.83;17.87;;;3.00;99.90;;;;;;4974714;28;20292;-83
2023/01/19 05:59:44;;;;;;;34.20;16.07;;;2.90;99.90;;;;;;4959463;28;20201;-78
2023/01/19 06:02:31;;;;;;;32.00;16.50;;;3.00;99.90;;;;;;4959764;28;20204;-87
2023/01/19 06:05:01;;;;;;;34.07;17.07;;;3.00;99.90;;;;;;4942461;28;20198;-93
2023/01/19 06:07:31;;;;;;;36.00;17.57;;;3.00;99.90;;;;;;4959468;28;20213;-84
2023/01/19 06:10:00;;;;;;;37.13;17.50;;;3.00;99.90;;;;;;4943577;28;20289;-95
2023/01/19 06:12:27;;;;;;;32.47;16.07;;;2.90;99.90;;;;;;4976097;28;20292;-82
2023/01/19 06:14:54;;;;;;;32.80;16.70;;;2.90;99.90;;;;;;4974903;28;20208;-78
2023/01/19 06:17:27;;;;;;;35.63;17.10;;;2.90;99.90;;;;;;4958629;28;20204;-80
2023/01/19 06:19:54;;;;;;;34.50;16.63;;;3.10;99.90;;;;;;4980173;28;20192;-85
2023/01/19 06:22:26;;;;;;;35.23;17.13;;;2.90;99.90;;;;;;4962725;28;20726;-85
2023/01/19 06:24:57;;;;;;;32.07;15.97;;;3.00;99.90;;;;;;4980435;28;20197;-83
2023/01/19 06:27:33;;;;;;;33.07;15.90;;;3.00;99.90;;;;;;4985082;28;20272;-96
2023/01/19 06:30:05;;;;;;;30.90;14.53;;;3.00;99.90;;;;;;4980894;28;20251;-90
2023/01/19 06:32:32;;;;;;;32.03;15.63;;;3.00;99.90;;;;;;4978573;28;20230;-91
2023/01/19 06:34:59;;;;;;;30.23;15.17;;;3.00;99.90;;;;;;4959862;28;20197;-84
2023/01/19 06:37:30;;;;;;;30.73;15.60;;;2.90;99.90;;;;;;4961078;28;20641;-77
2023/01/19 06:40:00;;;;;;;31.97;15.87;;;3.00;99.90;;;;;;4958654;28;20193;-81
2023/01/19 06:42:27;;;;;;;33.10;15.80;;;3.00;99.90;;;;;;4977075;28;20559;-92
2023/01/19 06:44:54;;;;;;;32.30;14.93;;;3.00;99.90;;;;;;4974242;28;20230;-78
2023/01/19 06:47:21;;;;;;;29.73;14.90;;;2.90;99.90;;;;;;4974261;28;20200;-79
2023/01/19 06:49:48;;;;;;;30.10;14.90;;;2.90;99.90;;;;;;4980767;28;20195;-76
2023/01/19 06:52:16;;;;;;;31.73;15.57;;;2.90;99.90;;;;;;4961407;28;20229;-91
2023/01/19 06:54:49;;;;;;;32.90;15.67;;;2.80;99.90;;;;;;4975639;28;20193;-79
2023/01/19 06:57:18;;;;;;;32.80;16.07;;;2.90;99.90;;;;;;4975900;28;20204;-89
2023/01/19 06:59:46;;;;;;;31.30;15.73;;;2.80;99.90;;;;;;4974082;28;20191;-84
2023/01/19 07:02:19;;;;;;;34.17;16.40;;;2.80;99.90;;;;;;4973838;28;20202;-81
2023/01/19 07:04:56;;;;;;;30.57;14.97;;;2.90;99.90;;;;;;4958277;28;20208;-82
2023/01/19 07:07:24;;;;;;;37.03;16.40;;;3.00;99.90;;;;;;4973787;28;20632;-87
2023/01/19 07:09:53;;;;;;;29.63;15.27;;;2.90;99.90;;;;;;4974505;28;20203;-75
2023/01/19 07:12:21;;;;;;;33.47;16.10;;;2.90;99.90;;;;;;4975216;28;20228;-75
2023/01/19 07:14:51;;;;;;;32.17;16.27;;;2.90;99.90;;;;;;4958040;28;20193;-77
2023/01/19 07:17:24;;;;;;;32.57;15.60;;;2.90;99.90;;;;;;4975549;28;20228;-76
2023/01/19 07:19:51;;;;;;;34.03;15.67;;;3.00;99.90;;;;;;4975162;28;20202;-78
2023/01/19 07:22:18;;;;;;;29.13;15.13;;;3.00;99.90;;;;;;4974750;28;20685;-89
2023/01/19 07:24:45;;;;;;;32.03;16.13;;;3.00;99.90;;;;;;4978066;28;20684;-74
2023/01/19 07:27:12;;;;;;;34.40;16.50;;;2.90;99.90;;;;;;4957069;28;20206;-78
2023/01/19 07:29:39;;;;;;;31.47;15.93;;;3.00;99.90;;;;;;4974082;28;20231;-83
2023/01/19 07:32:06;;;;;;;33.03;15.83;;;2.90;99.90;;;;;;4973665;28;20213;-76
2023/01/19 07:34:33;;;;;;;33.23;16.63;;;3.00;99.90;;;;;;4957562;28;20230;-78
2023/01/19 07:37:03;;;;;;;34.67;17.10;;;3.00;99.90;;;;;;4957126;28;20261;-81
2023/01/19 07:39:30;;;;;;;35.57;17.23;;;3.00;99.90;;;;;;4973858;28;20250;-94
2023/01/19 07:41:57;;;;;;;34.07;16.67;;;3.10;99.90;;;;;;4974790;28;20726;-86
2023/01/19 07:44:24;;;;;;;37.23;17.10;;;3.10;99.90;;;;;;4973416;28;20201;-83
2023/01/19 07:46:51;;;;;;;34.20;16.40;;;3.20;99.90;;;;;;4957316;28;20202;-82
2023/01/19 07:49:19;;;;;;;34.30;16.30;;;3.20;99.90;;;;;;4973147;28;20244;-88
2023/01/19 07:51:58;;;;;;;33.27;16.27;;;3.10;99.90;;;;;;4975303;28;20526;-78
2023/01/19 07:54:28;;;;;;;31.97;15.77;;;3.10;99.90;;;;;;4967857;28;20232;-79
2023/01/19 07:56:55;;;;;;;32.47;15.93;;;3.00;99.90;;;;;;4983226;28;20199;-83
2023/01/19 07:59:29;;;;;;;34.67;16.13;;;3.10;99.90;;;;;;4956987;28;20205;-81
2023/01/19 08:02:04;;;;;;;35.03;16.17;;;3.10;99.90;;;;;;4974991;28;20197;-91
2023/01/19 08:04:31;;;;;;;33.33;15.60;;;3.10;99.90;;;;;;4958980;28;20201;-86
2023/01/19 08:07:12;;;;;;;30.77;15.77;;;3.10;99.90;;;;;;4973651;28;20212;-82
2023/01/19 08:09:47;;;;;;;32.33;15.40;;;3.10;99.90;;;;;;4974087;28;20217;-78
2023/01/19 08:12:28;;;;;;;31.97;16.57;;;3.10;99.90;;;;;;4972946;28;20245;-80
2023/01/19 08:14:55;;;;;;;32.23;15.10;;;3.20;99.90;;;;;;4960462;28;20284;-80
2023/01/19 08:17:24;;;;;;;30.90;15.00;;;3.10;99.90;;;;;;4977295;28;20284;-77
2023/01/19 08:19:55;;;;;;;32.07;15.40;;;3.20;99.90;;;;;;4978243;28;20625;-79
2023/01/19 08:22:25;;;;;;;29.03;14.90;;;3.30;99.90;;;;;;4977512;28;20706;-81
2023/01/19 08:24:53;;;;;;;32.10;16.63;;;3.20;99.90;;;;;;4978193;28;20647;-85
2023/01/19 08:27:20;;;;;;;29.67;15.13;;;3.20;99.90;;;;;;4977213;28;20211;-70
2023/01/19 08:29:49;;;;;;;32.73;16.73;;;3.20;99.90;;;;;;4976573;28;20202;-84
2023/01/19 08:32:16;;;;;;;33.77;16.30;;;3.20;99.90;;;;;;4978314;28;20296;-82
2023/01/19 08:34:43;;;;;;;34.87;16.90;;;3.30;99.90;;;;;;4964622;28;20290;-79
2023/01/19 08:37:10;;;;;;;32.17;16.33;;;3.30;99.90;;;;;;4953127;28;20230;-78
2023/01/19 08:39:37;;;;;;;32.60;15.97;;;3.20;99.90;;;;;;4950286;29;20298;-77
2023/01/19 08:42:04;;;;;;;33.50;16.13;;;3.30;99.90;;;;;;4966785;28;20201;-82
2023/01/19 08:44:31;;;;;;;34.47;16.17;;;3.30;99.90;;;;;;4969211;28;20232;-86
2023/01/19 08:46:58;;;;;;;31.33;15.43;;;3.30;99.90;;;;;;4955416;29;20202;-83
2023/01/19 08:49:25;;;;;;;30.10;15.30;;;3.30;99.90;;;;;;4968834;28;20214;-81
2023/01/19 08:51:52;;;;;;;33.37;16.70;;;3.30;99.90;;;;;;4979904;28;20214;-91
2023/01/19 08:54:20;;;;;;;31.83;16.30;;;3.30;99.90;;;;;;4991021;28;20200;-77
2023/01/19 08:56:53;;;;;;;30.93;15.97;;;3.30;99.90;;;;;;4958042;28;20206;-75
2023/01/19 08:59:20;;;;;;;32.27;16.60;;;3.30;99.90;;;;;;4955786;28;20205;-83
2023/01/19 09:01:46;;;;;;;33.10;16.13;;;3.30;99.90;;;;;;4956851;29;20207;-81
2023/01/19 09:04:14;;;;;;;31.63;16.00;;;3.30;99.90;;;;;;4956813;28;20238;-83
2023/01/19 09:06:41;;;;;;;35.40;16.10;;;3.30;99.90;;;;;;4956975;28;20214;-83
2023/01/19 09:09:08;;;;;;;32.13;16.23;;;3.30;99.90;;;;;;4957250;29;20583;-85
2023/01/19 09:11:37;;;;;;;32.60;16.77;;;3.30;99.90;;;;;;4973032;28;20211;-78
2023/01/19 09:14:04;;;;;;;33.80;16.13;;;3.40;99.90;;;;;;4956703;28;20253;-78
2023/01/19 09:16:31;;;;;;;30.50;15.13;;;3.40;99.90;;;;;;4956642;29;20288;-77
2023/01/19 09:18:58;;;;;;;30.30;15.53;;;3.40;99.90;;;;;;4957075;29;20266;-81
2023/01/19 09:21:25;;;;;;;30.40;15.00;;;3.40;99.90;;;;;;4973503;28;20198;-89
2023/01/19 09:23:56;;;;;;;27.73;13.30;;;3.40;99.90;;;;;;4972535;28;20250;-85
2023/01/19 09:26:26;;;;;;;26.77;13.40;;;3.30;99.90;;;;;;4955622;28;20241;-87
2023/01/19 09:28:55;;;;;;;27.13;13.67;;;3.30;99.90;;;;;;4956403;29;20202;-77
2023/01/19 09:31:30;;;;;;;25.60;12.83;;;3.30;99.90;;;;;;4957361;28;20207;-84
2023/01/19 09:33:57;;;;;;;26.60;13.23;;;3.20;99.90;;;;;;4956531;29;20667;-80
2023/01/19 09:36:24;;;;;;;25.63;13.27;;;3.30;99.90;;;;;;4939896;29;20268;-80
2023/01/19 09:38:52;;;;;;;28.03;13.47;;;3.30;99.90;;;;;;4956828;29;20706;-82
2023/01/19 09:41:21;;;;;;;29.03;13.70;;;3.30;99.90;;;;;;4956694;29;20636;-90
2023/01/19 09:43:55;;;;;;;23.93;12.93;;;3.30;99.90;;;;;;4972709;28;20202;-93
2023/01/19 09:46:28;;;;;;;26.47;13.50;;;3.30;99.90;;;;;;4956298;29;20311;-86
2023/01/19 09:48:58;;;;;;;27.33;13.77;;;3.40;99.90;;;;;;4957033;29;20199;-89
2023/01/19 09:51:32;;;;;;;26.83;12.73;;;3.40;99.90;;;;;;4940117;29;20198;-90
2023/01/19 09:54:05;;;;;;;27.90;13.30;;;3.40;99.90;;;;;;4958756;28;20238;-93
2023/01/19 09:56:32;;;;;;;26.43;13.03;;;3.40;99.90;;;;;;4957003;28;20248;-78
2023/01/19 09:59:16;;;;;;;23.87;12.80;;;3.50;99.90;;;;;;4956853;28;20217;-93
2023/01/19 10:01:52;;;;;;;23.87;12.47;;;3.50;99.90;;;;;;4956953;28;20680;-86
2023/01/19 10:04:36;;;;;;;23.30;12.23;;;3.50;99.90;;;;;;4956885;28;20556;-78
2023/01/19 10:07:13;;;;;;;22.57;10.90;;;3.50;99.90;;;;;;4956887;28;20196;-88
2023/01/19 10:10:23;;;;;;;20.97;11.17;;;3.50;99.90;;;;;;4955863;29;20225;-79
2023/01/19 10:13:14;;;;;;;19.87;9.70;;;3.50;99.90;;;;;;4900818;29;20313;-93
2023/01/19 10:16:05;;;;;;;20.37;10.90;;;3.40;99.90;;;;;;4916652;29;20199;-85
2023/01/19 10:18:39;;;;;;;19.97;10.43;;;3.40;99.90;;;;;;4916576;29;20232;-79
2023/01/19 10:21:18;;;;;;;21.33;11.27;;;3.30;99.90;;;;;;4900328;29;20206;-82
2023/01/19 10:23:59;;;;;;;18.83;10.13;;;3.30;99.90;;;;;;4916204;29;20674;-81
2023/01/19 10:26:35;;;;;;;19.50;10.37;;;3.30;99.90;;;;;;4916610;29;20227;-78
2023/01/19 10:29:21;;;;;;;19.50;10.13;;;3.40;99.90;;;;;;4915844;29;20203;-82
2023/01/19 10:31:50;;;;;;;20.07;10.00;;;3.50;99.90;;;;;;4900364;29;20225;-91
2023/01/19 10:34:19;;;;;;;17.83;10.03;;;3.40;99.90;;;;;;4900435;29;20207;-84
2023/01/19 10:37:04;;;;;;;17.10;10.00;;;3.40;99.90;;;;;;4899363;29;20203;-91
2023/01/19 10:39:32;;;;;;;19.07;10.30;;;3.40;99.90;;;;;;4881236;29;20208;-83
2023/01/19 10:42:19;;;;;;;19.67;10.07;;;3.40;99.90;;;;;;4867501;29;20211;-85
2023/01/19 10:44:52;;;;;;;18.43;10.13;;;3.40;99.90;;;;;;4896935;29;20223;-84
2023/01/19 10:47:23;;;;;;;18.20;9.57;;;3.50;99.90;;;;;;4937788;29;20285;-82
2023/01/19 10:49:51;;;;;;;16.20;9.57;;;3.60;99.90;;;;;;4956269;29;20206;-88
2023/01/19 10:52:34;;;;;;;18.90;9.43;;;3.60;99.90;;;;;;4938815;29;20296;-89
2023/01/19 10:55:04;;;;;;;18.37;9.57;;;3.70;99.90;;;;;;4940146;29;20198;-80
2023/01/19 10:57:39;;;;;;;16.33;8.83;;;3.60;99.90;;;;;;4956310;29;20582;-86
2023/01/19 11:00:29;;;;;;;21.67;9.97;;;3.70;99.90;;;;;;4939490;29;20187;-88
2023/01/19 11:02:56;;;;;;;16.57;9.27;;;3.70;99.90;;;;;;4955696;29;20196;-81
2023/01/19 11:05:30;;;;;;;18.40;9.80;;;3.80;99.90;;;;;;4938624;29;20587;-83
2023/01/19 11:07:57;;;;;;;18.57;9.77;;;3.70;99.90;;;;;;4938599;29;20603;-79
2023/01/19 11:10:28;;;;;;;18.10;9.90;;;3.70;99.90;;;;;;4938656;29;20764;-90
2023/01/19 11:13:11;;;;;;;18.70;10.33;;;3.70;99.90;;;;;;4956000;29;20226;-87
2023/01/19 11:16:17;;;;;;;18.37;10.20;;;3.70;99.90;;;;;;4938771;29;20250;-76
2023/01/19 11:18:46;;;;;;;18.23;10.00;;;3.80;99.90;;;;;;4955559;29;20211;-78
2023/01/19 11:21:15;;;;;;;19.23;10.77;;;3.80;99.90;;;;;;4955931;29;20200;-91
2023/01/19 11:23:49;;;;;;;19.53;10.50;;;3.80;99.90;;;;;;4938622;29;20211;-79
2023/01/19 11:26:56;;;;;;;19.50;10.37;;;3.80;99.90;;;;;;4954750;29;20600;-92
2023/01/19 11:29:28;;;;;;;20.30;10.90;;;3.90;99.90;;;;;;4934242;29;20285;-82
2023/01/19 11:32:10;;;;;;;20.33;11.23;;;3.90;99.90;;;;;;4934404;29;20215;-81
2023/01/19 11:34:39;;;;;;;22.43;11.57;;;3.90;99.90;;;;;;4935229;29;20206;-79
2023/01/19 11:37:21;;;;;;;20.47;11.00;;;3.90;99.90;;;;;;4937739;29;20235;-83
2023/01/19 11:40:01;;;;;;;24.97;12.30;;;4.00;99.90;;;;;;4953633;29;20235;-93
2023/01/19 11:42:36;;;;;;;20.53;12.00;;;4.10;99.90;;;;;;4953259;29;20212;-82
2023/01/19 11:45:19;;;;;;;21.13;11.50;;;3.90;99.90;;;;;;4953443;29;20252;-81
2023/01/19 11:47:50;;;;;;;21.77;11.73;;;4.00;99.90;;;;;;4953012;28;20206;-90
2023/01/19 11:50:23;;;;;;;20.50;11.50;;;4.00;99.90;;;;;;4953267;29;20325;-79
2023/01/19 11:53:15;;;;;;;21.93;11.83;;;4.00;99.90;;;;;;4936760;29;20250;-82
2023/01/19 11:55:51;;;;;;;21.63;11.70;;;4.00;99.90;;;;;;4937130;29;20228;-87
2023/01/19 11:58:19;;;;;;;20.50;11.87;;;4.00;99.90;;;;;;4952973;29;20259;-83
2023/01/19 12:01:19;;;;;;;21.23;11.97;;;3.90;99.90;;;;;;4953110;29;20297;-77
2023/01/19 12:04:17;;;;;;;23.30;11.80;;;4.00;99.90;;;;;;4937493;28;20214;-89
2023/01/19 12:06:48;;;;;;;22.27;11.37;;;4.00;99.90;;;;;;4973058;28;20199;-88
2023/01/19 12:09:29;;;;;;;22.93;12.17;;;4.00;99.90;;;;;;4974446;28;20213;-87
2023/01/19 12:12:02;;;;;;;21.90;12.17;;;4.00;99.90;;;;;;4973004;28;20199;-86
2023/01/19 12:14:38;;;;;;;22.47;11.37;;;4.00;99.90;;;;;;4989415;28;20677;-87
2023/01/19 12:17:12;;;;;;;22.07;12.53;;;3.90;99.90;;;;;;4974167;28;20200;-87
2023/01/19 12:19:50;;;;;;;24.67;12.53;;;3.90;99.90;;;;;;4973119;28;20221;-87
2023/01/19 12:22:22;;;;;;;22.07;12.20;;;3.90;99.90;;;;;;4973081;28;20194;-89
2023/01/19 12:25:02;;;;;;;23.80;12.53;;;3.90;99.90;;;;;;4973898;28;20253;-89
2023/01/19 12:27:41;;;;;;;22.37;11.73;;;3.90;99.90;;;;;;4974057;28;20580;-84
2023/01/19 12:30:26;;;;;;;21.03;12.10;;;3.90;99.90;;;;;;4972684;28;20645;-81
2023/01/19 12:33:39;;;;;;;23.03;12.73;;;3.90;99.90;;;;;;4973103;28;20228;-80
2023/01/19 12:36:36;;;;;;;24.00;12.73;;;3.90;99.90;;;;;;4971036;28;20210;-77
2023/01/19 12:39:17;;;;;;;25.23;13.40;;;3.90;99.90;;;;;;4992868;28;20229;-82
2023/01/19 12:41:46;;;;;;;24.67;12.67;;;3.90;99.90;;;;;;4993378;28;20302;-84
2023/01/19 12:44:19;;;;;;;22.57;12.57;;;3.90;99.90;;;;;;4993269;28;20201;-90
2023/01/19 12:46:51;;;;;;;37.30;18.03;;;4.00;99.90;;;;;;4992121;28;20198;-86
2023/01/19 12:49:26;;;;;;;26.90;14.33;;;3.90;99.90;;;;;;4975934;28;20685;-79
2023/01/19 12:52:33;;;;;;;24.37;12.57;;;4.00;99.90;;;;;;4993965;28;20279;-85
2023/01/19 12:55:12;;;;;;;25.43;13.10;;;3.90;99.90;;;;;;4974511;28;20201;-83
2023/01/19 12:57:46;;;;;;;24.40;13.30;;;3.90;99.90;;;;;;4975558;28;20281;-82
2023/01/19 13:00:35;;;;;;;23.03;12.13;;;3.80;99.90;;;;;;4993731;28;20197;-85
2023/01/19 13:03:17;;;;;;;24.23;12.97;;;3.90;99.90;;;;;;5001143;28;20595;-77
2023/01/19 13:05:50;;;;;;;24.27;13.27;;;3.90;99.90;;;;;;4979085;28;20233;-79
2023/01/19 13:08:22;;;;;;;26.53;13.37;;;3.90;99.90;;;;;;4979066;28;20269;-78
2023/01/19 13:10:58;;;;;;;25.23;13.50;;;3.90;99.90;;;;;;4963225;28;20232;-81
2023/01/19 13:13:35;;;;;;;25.10;13.13;;;3.90;99.90;;;;;;4996650;28;20196;-77
2023/01/19 13:16:17;;;;;;;24.47;13.50;;;3.90;99.90;;;;;;4995894;28;20396;-80